Time;durP1;ratioP1;P1;durP2;ratioP2;P2;SDS_P1;SDS_P2;PMS_P1;PMS_P2;Temp;Humidity;BMP_temperature;BMP_pressure;BME280_temperature;BME280_humidity;BME280_pressure;Samples;Min_cycle;Max_cycle;Signal;HPM_P1;HPM_P2
2021/03/05 00:00:28;;;;;;;;;76.50;57.50;;;;;4.55;68.94;100694.16;3724715;38;20827;-61
2021/03/05 00:02:56;;;;;;;;;77.25;57.25;;;;;4.61;69.20;100697.13;3724909;38;20845;-59
2021/03/05 00:05:22;;;;;;;;;73.00;57.25;;;;;4.63;69.51;100694.31;3724912;37;20838;-61
2021/03/05 00:07:48;;;;;;;;;72.50;56.25;;;;;4.43;69.25;100685.41;3724677;38;20798;-58
2021/03/05 00:10:19;;;;;;;;;64.50;52.50;;;;;4.39;69.80;100685.84;3724834;37;20823;-60
2021/03/05 00:12:45;;;;;;;;;69.50;52.25;;;;;4.38;69.70;100687.69;3724885;38;20814;-61
2021/03/05 00:15:13;;;;;;;;;69.00;52.75;;;;;4.31;69.69;100686.53;3724893;38;20838;-59
2021/03/05 00:17:39;;;;;;;;;71.00;53.75;;;;;4.21;69.84;100680.31;3725020;37;20808;-59
2021/03/05 00:20:13;;;;;;;;;64.50;53.50;;;;;4.06;69.98;100682.59;3725005;38;20828;-59
2021/03/05 00:22:41;;;;;;;;;70.25;54.75;;;;;4.08;70.39;100685.97;3724299;38;20812;-57
2021/03/05 00:25:09;;;;;;;;;78.00;57.50;;;;;4.08;70.70;100680.63;3649417;37;74097;-60
2021/03/05 00:27:36;;;;;;;;;70.50;55.25;;;;;4.04;70.89;100689.06;3724796;37;20746;-60
2021/03/05 00:30:06;;;;;;;;;74.25;57.00;;;;;3.90;70.75;100687.63;3724952;37;20734;-60
2021/03/05 00:32:34;;;;;;;;;76.50;57.00;;;;;3.78;70.57;100675.34;3724928;37;20764;-59
2021/03/05 00:35:01;;;;;;;;;68.00;51.00;;;;;3.76;70.87;100671.94;3724925;37;20751;-60
2021/03/05 00:37:27;;;;;;;;;74.50;55.25;;;;;3.59;70.92;100663.63;3724975;37;20751;-59
2021/03/05 00:39:53;;;;;;;;;68.25;49.25;;;;;3.65;71.12;100679.09;3724810;38;20755;-60
2021/03/05 00:42:19;;;;;;;;;70.25;54.00;;;;;3.65;71.38;100683.59;3724872;37;20750;-59
2021/03/05 00:44:45;;;;;;;;;59.50;47.00;;;;;3.67;71.42;100695.88;3724816;37;20747;-59
2021/03/05 00:47:13;;;;;;;;;64.50;50.25;;;;;3.74;71.66;100676.59;3724728;37;20717;-59
2021/03/05 00:49:42;;;;;;;;;69.00;51.25;;;;;3.76;70.97;100680.81;3724995;37;20714;-61
2021/03/05 00:52:10;;;;;;;;;74.25;55.00;;;;;3.78;71.29;100678.84;3724904;37;20719;-59
2021/03/05 00:54:37;;;;;;;;;77.25;55.25;;;;;3.74;71.27;100687.28;3724935;38;20704;-60
2021/03/05 00:57:04;;;;;;;;;68.50;53.00;;;;;3.62;70.81;100683.91;3724779;38;20705;-58
2021/03/05 00:59:30;;;;;;;;;62.50;47.75;;;;;3.57;71.70;100681.63;3724922;38;20726;-59
2021/03/05 01:01:56;;;;;;;;;70.50;53.25;;;;;3.59;71.80;100679.66;3724779;37;20701;-60
2021/03/05 01:04:22;;;;;;;;;70.50;53.25;;;;;3.59;71.53;100679.66;3725037;38;20696;-60
2021/03/05 01:06:48;;;;;;;;;67.75;53.50;;;;;3.57;71.76;100672.75;3725148;37;20705;-59
2021/03/05 01:09:15;;;;;;;;;64.25;50.50;;;;;3.57;71.53;100676.28;3725121;37;20685;-59
2021/03/05 01:11:42;;;;;;;;;73.00;55.25;;;;;3.52;71.76;100678.53;3725050;38;20698;-60
2021/03/05 01:14:08;;;;;;;;;69.00;53.75;;;;;3.51;72.02;100676.81;3725097;37;20683;-58
2021/03/05 01:16:35;;;;;;;;;69.75;54.25;;;;;3.52;72.06;100673.16;3725033;38;20671;-60
2021/03/05 01:19:02;;;;;;;;;74.50;54.75;;;;;3.55;72.13;100672.91;3724582;37;20680;-59
2021/03/05 01:21:32;;;;;;;;;72.25;54.50;;;;;3.50;72.42;100685.00;3725054;38;20680;-60
2021/03/05 01:23:58;;;;;;;;;70.50;55.00;;;;;3.40;71.92;100682.28;3725043;37;20676;-60
2021/03/05 01:26:24;;;;;;;;;73.25;54.75;;;;;3.37;72.25;100679.88;3725189;37;20654;-58
2021/03/05 01:28:51;;;;;;;;;75.00;54.00;;;;;3.32;72.41;100676.75;3725124;38;20648;-59
2021/03/05 01:31:18;;;;;;;;;66.25;49.50;;;;;3.27;72.27;100676.28;3724944;38;20676;-60
2021/03/05 01:33:45;;;;;;;;;67.25;53.00;;;;;3.28;72.60;100678.84;3724936;37;20651;-60
2021/03/05 01:36:14;;;;;;;;;72.25;50.75;;;;;3.31;72.92;100678.56;3724406;37;20666;-59
2021/03/05 01:38:40;;;;;;;;;71.00;54.50;;;;;3.38;73.10;100675.34;3724816;37;20654;-60
2021/03/05 01:41:06;;;;;;;;;72.50;55.75;;;;;3.42;72.60;100682.13;3724900;38;20667;-61
2021/03/05 01:43:36;;;;;;;;;75.00;53.50;;;;;3.34;72.47;100672.09;3724806;37;20649;-60
2021/03/05 01:46:04;;;;;;;;;68.25;53.25;;;;;3.26;72.85;100669.25;3724933;37;20650;-59
2021/03/05 01:48:32;;;;;;;;;71.75;54.25;;;;;3.12;72.80;100669.62;3725109;37;20623;-58
2021/03/05 01:51:27;;;;;;;;;70.00;57.25;;;;;2.95;73.02;100653.22;3724647;37;20621;-60
2021/03/05 01:53:54;;;;;;;;;72.50;55.50;;;;;2.98;73.27;100660.97;3725512;38;20643;-57
2021/03/05 01:56:48;;;;;;;;;74.75;57.00;;;;;2.93;73.49;100662.34;3724975;38;20627;-58
2021/03/05 01:59:34;;;;;;;;;68.50;53.50;;;;;2.84;73.62;100663.97;3724503;37;20586;-60
2021/03/05 02:02:06;;;;;;;;;72.00;53.25;;;;;2.86;73.66;100666.53;3724976;37;20622;-60
2021/03/05 02:04:35;;;;;;;;;64.50;52.25;;;;;2.89;74.12;100668.94;3724962;38;20605;-61
2021/03/05 02:07:03;;;;;;;;;71.25;53.25;;;;;2.93;74.05;100673.88;3724931;37;20629;-60
2021/03/05 02:09:30;;;;;;;;;71.75;57.00;;;;;2.86;73.74;100663.84;3724963;37;20619;-60
2021/03/05 02:11:56;;;;;;;;;71.50;53.50;;;;;2.79;74.18;100665.34;3725142;37;20610;-59
2021/03/05 02:14:24;;;;;;;;;66.75;52.25;;;;;2.76;74.48;100654.91;3725146;37;20643;-59
2021/03/05 02:17:18;;;;;;;;;70.50;55.50;;;;;2.71;74.16;100657.97;3724768;38;20624;-60
2021/03/05 02:20:14;;;;;;;;;73.50;54.25;;;;;2.72;74.38;100670.38;3725204;37;20615;-60
2021/03/05 02:23:12;;;;;;;;;66.50;51.75;;;;;2.61;74.07;100676.63;3725034;38;20560;-60
2021/03/05 02:26:26;;;;;;;;;75.25;54.00;;;;;2.58;74.56;100676.91;3725002;37;20599;-59
2021/03/05 02:29:34;;;;;;;;;63.50;48.75;;;;;2.57;74.53;100679.72;3724939;38;20576;-60
2021/03/05 02:32:08;;;;;;;;;63.25;48.75;;;;;2.54;74.81;100677.28;3725029;37;20758;-59
2021/03/05 02:34:46;;;;;;;;;67.25;52.50;;;;;2.56;75.09;100678.00;3725009;37;20589;-59
2021/03/05 02:37:13;;;;;;;;;56.25;45.25;;;;;2.58;74.77;100676.06;3725065;38;20599;-60
2021/03/05 02:39:51;;;;;;;;;64.00;51.50;;;;;2.57;74.61;100677.87;3725007;38;20594;-57
2021/03/05 02:42:34;;;;;;;;;63.75;47.75;;;;;2.55;74.92;100676.31;3725137;37;20551;-59
2021/03/05 02:45:10;;;;;;;;;65.00;49.00;;;;;2.48;74.78;100670.63;3724561;38;20774;-59
2021/03/05 02:47:40;;;;;;;;;59.00;48.00;;;;;2.55;74.75;100670.97;3724751;37;20568;-60
2021/03/05 02:50:09;;;;;;;;;62.25;49.50;;;;;2.52;74.88;100674.75;3724825;38;20565;-58
2021/03/05 02:52:40;;;;;;;;;64.25;49.25;;;;;2.49;74.96;100680.34;3725028;38;20560;-58
2021/03/05 02:55:09;;;;;;;;;59.00;48.75;;;;;2.45;75.06;100680.72;3725060;38;20561;-60
2021/03/05 02:57:45;;;;;;;;;61.25;49.25;;;;;2.46;75.19;100685.09;3724695;38;21523;-61
2021/03/05 03:00:13;;;;;;;;;57.00;46.25;;;;;2.40;74.92;100677.59;3724615;38;20547;-60
2021/03/05 03:02:43;;;;;;;;;58.00;47.50;;;;;2.42;75.30;100692.53;3724889;38;20549;-59
2021/03/05 03:05:13;;;;;;;;;58.25;47.50;;;;;2.47;75.34;100684.97;3725028;37;20667;-59
2021/03/05 03:07:40;;;;;;;;;65.75;49.75;;;;;2.51;75.52;100689.09;3724986;38;21614;-60
2021/03/05 03:10:09;;;;;;;;;61.50;49.50;;;;;2.46;75.06;100690.44;3724908;38;20544;-60
2021/03/05 03:12:36;;;;;;;;;61.25;46.00;;;;;2.40;75.43;100688.28;3725054;37;21552;-59
2021/03/05 03:15:15;;;;;;;;;61.00;45.75;;;;;2.42;75.75;100689.00;3724982;37;21539;-61
2021/03/05 03:17:47;;;;;;;;;65.00;48.25;;;;;2.47;75.37;100700.16;3725116;38;21527;-59
2021/03/05 03:20:18;;;;;;;;;66.00;52.75;;;;;2.45;75.48;100702.94;3724608;38;21501;-60
2021/03/05 03:22:44;;;;;;;;;59.00;45.50;;;;;2.44;75.49;100695.06;3724915;37;21528;-58
2021/03/05 03:25:12;;;;;;;;;61.00;50.75;;;;;2.38;75.39;100696.44;3724935;38;21502;-59
2021/03/05 03:27:39;;;;;;;;;66.00;51.00;;;;;2.31;75.78;100690.75;3725196;37;20656;-60
2021/03/05 03:30:10;;;;;;;;;70.00;52.75;;;;;2.24;75.66;100697.56;3724447;38;21490;-59
2021/03/05 03:32:40;;;;;;;;;63.50;50.25;;;;;2.14;75.73;100698.44;3724984;38;21507;-59
2021/03/05 03:35:09;;;;;;;;;60.50;50.00;;;;;2.14;76.17;100701.97;3724607;37;21511;-60
2021/03/05 03:37:36;;;;;;;;;63.50;50.00;;;;;2.21;76.67;100694.28;3724963;38;21473;-61
2021/03/05 03:40:23;;;;;;;;;67.25;50.75;;;;;2.24;76.16;100700.22;3724925;37;21476;-58
2021/03/05 03:42:50;;;;;;;;;63.75;48.50;;;;;2.13;76.31;100689.59;3724985;37;21486;-61
2021/03/05 03:45:23;;;;;;;;;65.25;51.25;;;;;2.12;76.31;100684.37;3725018;37;21501;-58
2021/03/05 03:47:51;;;;;;;;;66.00;53.00;;;;;2.06;76.54;100680.41;3724824;37;21487;-60
2021/03/05 03:50:27;;;;;;;;;62.75;49.75;;;;;1.99;76.86;100684.56;3724507;37;21491;-60
2021/03/05 03:53:18;;;;;;;;;62.50;50.00;;;;;2.03;76.70;100674.47;3724393;37;21494;-60
2021/03/05 03:55:50;;;;;;;;;72.00;50.50;;;;;2.11;76.71;100688.00;3724690;38;21472;-61
2021/03/05 03:58:17;;;;;;;;;65.75;50.00;;;;;2.06;76.74;100696.44;3724361;38;21475;-60
2021/03/05 04:00:46;;;;;;;;;64.25;51.00;;;;;2.04;77.00;100693.03;3724832;37;21411;-61
2021/03/05 04:03:18;;;;;;;;;62.75;49.50;;;;;2.02;76.81;100678.97;3724867;38;21459;-61
2021/03/05 04:05:46;;;;;;;;;60.50;45.25;;;;;2.02;77.12;100665.62;3724568;37;21450;-61
2021/03/05 04:08:16;;;;;;;;;61.75;49.75;;;;;2.03;77.05;100670.00;3724948;37;21470;-59
2021/03/05 04:10:44;;;;;;;;;69.25;52.25;;;;;2.02;77.58;100673.63;3725056;37;21448;-59
2021/03/05 04:13:13;;;;;;;;;58.50;46.00;;;;;2.07;77.16;100682.13;3724964;37;21432;-61
2021/03/05 04:15:39;;;;;;;;;67.00;52.75;;;;;2.16;77.75;100678.66;3725054;38;21430;-61
2021/03/05 04:18:07;;;;;;;;;62.50;49.00;;;;;2.20;77.23;100681.91;3724842;37;21454;-61
2021/03/05 04:20:37;;;;;;;;;67.25;50.00;;;;;2.14;77.21;100669.94;3724998;37;21426;-59
2021/03/05 04:23:09;;;;;;;;;54.25;41.75;;;;;2.14;76.87;100671.75;3724914;37;21422;-58
2021/03/05 04:25:34;;;;;;;;;63.50;47.00;;;;;2.09;77.22;100677.47;3725133;38;21449;-61
2021/03/05 04:28:02;;;;;;;;;66.50;50.75;;;;;1.99;77.33;100673.88;3724937;37;21471;-60
2021/03/05 04:30:28;;;;;;;;;67.50;49.50;;;;;1.94;77.76;100657.41;3725154;37;18499;-58
2021/03/05 04:32:55;;;;;;;;;65.25;51.00;;;;;2.01;77.79;100665.75;3725261;38;21415;-59
2021/03/05 04:35:21;;;;;;;;;61.25;48.00;;;;;1.97;77.67;100651.81;3724975;37;21428;-60
2021/03/05 04:37:47;;;;;;;;;63.75;52.25;;;;;2.08;77.62;100658.94;3724879;38;21408;-60
2021/03/05 04:40:14;;;;;;;;;61.00;50.75;;;;;2.14;77.75;100656.56;3724893;38;21427;-59
2021/03/05 04:42:43;;;;;;;;;51.50;40.00;;;;;2.12;77.56;100655.00;3725102;38;21402;-60
2021/03/05 04:45:10;;;;;;;;;69.25;54.25;;;;;2.06;77.29;100655.53;3725185;38;21393;-61
2021/03/05 04:47:36;;;;;;;;;70.50;55.00;;;;;2.06;77.42;100656.38;3725052;37;21390;-61
2021/03/05 04:50:04;;;;;;;;;70.25;54.25;;;;;2.01;77.23;100658.59;3724957;38;21397;-59
2021/03/05 04:52:35;;;;;;;;;69.25;53.75;;;;;1.90;77.40;100654.13;3725142;37;21409;-58
2021/03/05 04:55:02;;;;;;;;;63.00;49.50;;;;;1.88;77.34;100657.91;3724899;38;21392;-60
2021/03/05 04:57:28;;;;;;;;;58.25;47.75;;;;;1.91;77.55;100665.66;3724900;37;21673;-60
2021/03/05 04:59:55;;;;;;;;;67.50;50.00;;;;;1.83;77.48;100660.94;3724916;37;21392;-60
2021/03/05 05:02:27;;;;;;;;;55.25;45.50;;;;;1.77;77.83;100666.78;3725129;37;21397;-59
2021/03/05 05:04:54;;;;;;;;;69.50;53.75;;;;;1.76;77.61;100672.22;3725035;37;21361;-58
2021/03/05 05:07:22;;;;;;;;;69.25;55.25;;;;;1.79;78.21;100669.31;3725077;37;21376;-59
2021/03/05 05:09:49;;;;;;;;;65.50;51.50;;;;;1.83;77.97;100665.44;3725118;38;21383;-60
2021/03/05 05:12:15;;;;;;;;;77.50;59.50;;;;;1.90;78.42;100669.28;3725116;38;21778;-58
2021/03/05 05:14:42;;;;;;;;;78.25;58.75;;;;;1.95;78.34;100664.44;3725112;38;21360;-59
2021/03/05 05:17:10;;;;;;;;;76.00;56.50;;;;;1.96;78.13;100674.97;3725136;37;21359;-59
2021/03/05 05:19:38;;;;;;;;;63.00;49.25;;;;;2.01;78.21;100677.28;3724616;37;21387;-61
2021/03/05 05:22:04;;;;;;;;;73.50;58.00;;;;;2.06;78.01;100667.06;3725133;38;21374;-60
2021/03/05 05:24:31;;;;;;;;;81.00;61.75;;;;;2.19;78.19;100683.75;3725229;38;21351;-59
2021/03/05 05:26:57;;;;;;;;;82.50;64.00;;;;;2.26;77.81;100682.25;3725439;38;18456;-59
2021/03/05 05:29:23;;;;;;;;;88.00;69.50;;;;;2.39;77.92;100687.44;3725498;38;18447;-60
2021/03/05 05:31:50;;;;;;;;;82.50;63.75;;;;;2.32;77.53;100688.91;3725509;38;18438;-60
2021/03/05 05:34:16;;;;;;;;;80.75;61.50;;;;;2.30;77.73;100694.37;3725544;38;18430;-59
2021/03/05 05:36:42;;;;;;;;;84.00;61.00;;;;;2.28;77.62;100688.31;3725378;37;18536;-61
2021/03/05 05:39:09;;;;;;;;;70.25;52.50;;;;;2.43;77.70;100704.91;3725496;37;18434;-60
2021/03/05 05:41:40;;;;;;;;;73.00;57.00;;;;;2.55;77.46;100697.69;3724735;37;21342;-60
2021/03/05 05:44:07;;;;;;;;;74.00;56.75;;;;;2.60;77.40;100703.50;3725363;37;21337;-60
2021/03/05 05:46:34;;;;;;;;;71.50;53.00;;;;;2.61;77.65;100703.34;3725191;38;21335;-59
2021/03/05 05:49:04;;;;;;;;;71.00;56.50;;;;;2.67;77.28;100707.31;3725146;37;21346;-59
2021/03/05 05:51:34;;;;;;;;;68.00;52.00;;;;;2.74;77.19;100707.66;3724857;38;21323;-60
2021/03/05 05:54:08;;;;;;;;;66.75;53.00;;;;;2.72;77.30;100709.59;3725408;38;21329;-58
2021/03/05 05:56:39;;;;;;;;;72.25;57.00;;;;;2.76;77.01;100706.53;3725143;38;21346;-58
2021/03/05 05:59:06;;;;;;;;;61.00;51.25;;;;;2.89;76.92;100717.06;3725208;38;21306;-60
2021/03/05 06:01:34;;;;;;;;;72.25;56.00;;;;;3.00;77.18;100722.34;3725331;37;21323;-59
2021/03/05 06:04:10;;;;;;;;;74.50;57.25;;;;;3.10;77.11;100719.72;3724984;37;21302;-58
2021/03/05 06:06:39;;;;;;;;;73.75;57.50;;;;;3.15;76.75;100720.12;3725289;38;21323;-59
2021/03/05 06:09:05;;;;;;;;;72.50;55.25;;;;;3.14;76.41;100721.13;3724932;38;21283;-58
2021/03/05 06:11:38;;;;;;;;;79.50;57.00;;;;;3.24;76.37;100722.88;3725328;38;21297;-60
2021/03/05 06:14:09;;;;;;;;;70.50;55.75;;;;;3.40;76.41;100710.84;3725184;38;21287;-60
2021/03/05 06:16:36;;;;;;;;;78.75;59.25;;;;;3.59;76.28;100717.12;3725065;38;21310;-61
2021/03/05 06:19:18;;;;;;;;;77.25;58.25;;;;;3.75;76.03;100711.25;3724970;37;21293;-60
2021/03/05 06:21:44;;;;;;;;;78.25;60.50;;;;;3.81;75.86;100717.91;3725071;38;21283;-60
2021/03/05 06:24:11;;;;;;;;;76.25;56.50;;;;;3.89;75.33;100724.25;3724770;37;21276;-58
2021/03/05 06:27:06;;;;;;;;;77.25;58.75;;;;;3.98;75.47;100701.19;3725031;37;21289;-59
2021/03/05 06:29:49;;;;;;;;;82.00;58.25;;;;;4.26;75.28;100713.75;3724657;37;21263;-62
2021/03/05 06:32:18;;;;;;;;;76.75;57.25;;;;;4.25;74.19;100706.69;3725172;38;21280;-63
2021/03/05 06:35:10;;;;;;;;;80.00;59.75;;;;;4.38;74.62;100702.91;3724994;37;21276;-63
2021/03/05 06:37:45;;;;;;;;;75.75;58.50;;;;;4.47;74.24;100702.91;3725197;37;21267;-59
2021/03/05 06:40:14;;;;;;;;;75.50;58.25;;;;;4.55;73.87;100704.87;3725112;37;21239;-59
2021/03/05 06:42:54;;;;;;;;;73.00;55.50;;;;;4.61;73.89;100699.81;3724945;37;21262;-60
2021/03/05 06:45:25;;;;;;;;;79.50;58.00;;;;;4.71;73.61;100696.25;3725331;37;21241;-60
2021/03/05 06:48:00;;;;;;;;;79.50;60.00;;;;;4.85;73.84;100696.66;3725056;38;21250;-58
2021/03/05 06:50:27;;;;;;;;;78.75;59.75;;;;;4.97;73.33;100697.34;3725093;37;21255;-59
2021/03/05 06:52:53;;;;;;;;;80.25;61.00;;;;;5.15;73.29;100700.16;3725078;38;21244;-60
2021/03/05 06:55:20;;;;;;;;;80.00;59.25;;;;;5.33;72.76;100698.37;3725240;37;21257;-61
2021/03/05 06:57:46;;;;;;;;;83.00;65.00;;;;;5.56;72.73;100683.59;3725007;38;21242;-60
2021/03/05 07:00:20;;;;;;;;;80.25;60.25;;;;;5.82;71.85;100688.25;3725119;37;21246;-62
2021/03/05 07:02:46;;;;;;;;;78.50;60.00;;;;;5.98;71.42;100683.94;3725274;38;21188;-64
2021/03/05 07:05:13;;;;;;;;;81.75;64.50;;;;;6.17;70.88;100684.81;3725444;38;21222;-65
2021/03/05 07:07:48;;;;;;;;;78.50;60.00;;;;;6.28;70.14;100684.56;3725571;37;21239;-63
2021/03/05 07:10:16;;;;;;;;;82.25;64.50;;;;;6.44;69.20;100679.38;3725654;38;21222;-65
2021/03/05 07:13:02;;;;;;;;;77.00;59.25;;;;;6.59;69.16;100680.50;3725534;37;18327;-60
2021/03/05 07:15:29;;;;;;;;;71.25;56.75;;;;;6.69;67.76;100674.22;3725239;37;21212;-62
2021/03/05 07:17:58;;;;;;;;;71.00;56.25;;;;;6.72;67.44;100674.75;3725372;37;21210;-61
2021/03/05 07:20:24;;;;;;;;;70.75;56.50;;;;;6.89;66.97;100687.28;3724565;38;21217;-61
2021/03/05 07:22:55;;;;;;;;;73.75;55.25;;;;;6.97;66.37;100673.06;3724996;37;21193;-62
2021/03/05 07:25:24;;;;;;;;;70.75;54.25;;;;;7.08;65.53;100674.66;3725189;38;21205;-62
2021/03/05 07:27:52;;;;;;;;;74.75;58.00;;;;;7.21;64.78;100673.22;3725136;37;21187;-61
2021/03/05 07:30:25;;;;;;;;;73.25;57.25;;;;;7.41;64.67;100668.44;3725253;37;21201;-62
2021/03/05 07:32:59;;;;;;;;;73.50;57.50;;;;;7.56;63.07;100668.69;3725077;38;21217;-63
2021/03/05 07:35:40;;;;;;;;;75.75;59.50;;;;;7.78;63.04;100665.41;3724976;37;21190;-62
2021/03/05 07:38:14;;;;;;;;;72.00;54.00;;;;;7.85;62.20;100668.25;3725197;37;21224;-62
2021/03/05 07:40:44;;;;;;;;;73.75;57.25;;;;;7.96;61.77;100663.41;3725216;37;21172;-63
2021/03/05 07:43:15;;;;;;;;;72.50;56.00;;;;;8.04;61.68;100659.91;3724821;37;21175;-62
2021/03/05 07:45:42;;;;;;;;;79.00;58.25;;;;;8.11;62.07;100662.78;3725041;37;21532;-61
2021/03/05 07:48:10;;;;;;;;;75.25;57.75;;;;;8.20;61.31;100656.41;3724859;38;21185;-63
2021/03/05 07:50:37;;;;;;;;;73.25;57.25;;;;;8.33;60.37;100658.63;3725071;38;21159;-62
2021/03/05 07:53:05;;;;;;;;;68.25;54.00;;;;;8.35;60.22;100665.53;3725002;37;21169;-63
2021/03/05 07:55:39;;;;;;;;;76.00;57.75;;;;;8.35;60.38;100664.69;3725007;37;21173;-62
2021/03/05 07:58:06;;;;;;;;;77.50;60.25;;;;;8.40;60.70;100667.75;3725087;37;21147;-62
2021/03/05 08:00:52;;;;;;;;;78.25;60.00;;;;;8.34;60.04;100669.25;3725196;38;18253;-62
2021/03/05 08:03:23;;;;;;;;;77.50;58.00;;;;;8.31;59.77;100664.19;3725335;37;21146;-61
2021/03/05 08:05:50;;;;;;;;;76.25;58.25;;;;;8.36;59.73;100661.84;3725171;37;21142;-62
2021/03/05 08:08:34;;;;;;;;;82.00;63.25;;;;;8.28;59.58;100659.97;3725325;37;21154;-63
2021/03/05 08:11:05;;;;;;;;;75.00;58.00;;;;;8.33;60.56;100661.31;3725405;37;18218;-62
2021/03/05 08:13:49;;;;;;;;;78.25;63.00;;;;;8.42;60.32;100669.25;3725183;37;21152;-62
2021/03/05 08:16:37;;;;;;;;;79.50;66.00;;;;;8.53;60.61;100657.31;3725427;37;18211;-62
2021/03/05 08:19:47;;;;;;;;;84.75;70.00;;;;;8.61;61.37;100654.59;3725236;38;18213;-62
2021/03/05 08:22:14;;;;;;;;;77.75;62.25;;;;;8.71;61.21;100654.44;3725652;38;18240;-61
2021/03/05 08:24:41;;;;;;;;;82.50;71.25;;;;;8.78;61.32;100648.19;3725067;38;18201;-63
2021/03/05 08:27:19;;;;;;;;;80.25;60.00;;;;;8.94;60.46;100650.00;3725166;37;18213;-62
2021/03/05 08:30:04;;;;;;;;;88.00;75.50;;;;;9.15;61.24;100644.09;3725554;37;18192;-63
2021/03/05 08:32:57;;;;;;;;;81.00;64.00;;;;;9.33;60.57;100644.72;3725171;37;18185;-62
2021/03/05 08:35:51;;;;;;;;;83.25;65.75;;;;;9.49;60.00;100633.84;3725347;38;18209;-62
2021/03/05 08:38:32;;;;;;;;;83.75;70.25;;;;;9.70;59.18;100632.41;3725281;38;18175;-63
2021/03/05 08:41:03;;;;;;;;;77.75;63.00;;;;;9.68;58.38;100629.87;3725262;37;18169;-63
2021/03/05 08:43:31;;;;;;;;;79.25;64.00;;;;;9.69;58.58;100625.31;3725311;37;21094;-64
2021/03/05 08:46:04;;;;;;;;;72.25;57.75;;;;;9.90;57.91;100628.22;3724971;37;18175;-62
2021/03/05 08:48:48;;;;;;;;;80.00;65.50;;;;;10.07;57.70;100615.44;3724993;37;18185;-60
2021/03/05 08:51:22;;;;;;;;;81.75;70.75;;;;;10.17;57.97;100625.03;3725153;37;18179;-63
2021/03/05 08:53:55;;;;;;;;;84.75;71.75;;;;;10.37;56.91;100620.00;3725113;37;18165;-59
2021/03/05 08:56:30;;;;;;;;;80.00;65.50;;;;;10.59;56.18;100621.84;3725087;38;18185;-62
2021/03/05 08:59:02;;;;;;;;;79.50;69.25;;;;;10.85;55.80;100610.63;3725195;37;18180;-64
2021/03/05 09:01:39;;;;;;;;;75.00;60.50;;;;;11.11;54.66;100620.16;3725150;38;21082;-63
2021/03/05 09:04:17;;;;;;;;;74.50;55.75;;;;;11.39;53.25;100614.94;3725081;38;21065;-60
2021/03/05 09:06:54;;;;;;;;;75.50;58.25;;;;;11.47;51.76;100609.38;3725074;38;21077;-62
2021/03/05 09:09:27;;;;;;;;;74.25;57.25;;;;;11.78;51.19;100609.22;3725145;38;21063;-63
2021/03/05 09:12:13;;;;;;;;;72.25;57.00;;;;;12.06;50.75;100604.72;3725192;38;21062;-61
2021/03/05 09:14:46;;;;;;;;;72.00;55.00;;;;;12.32;50.45;100609.59;3725146;38;21065;-62
2021/03/05 09:17:15;;;;;;;;;72.50;55.75;;;;;12.37;49.23;100609.84;3725311;37;21076;-62
2021/03/05 09:19:46;;;;;;;;;67.25;52.75;;;;;12.52;48.11;100612.47;3725362;38;21052;-63
2021/03/05 09:22:21;;;;;;;;;70.75;53.25;;;;;12.58;48.32;100617.13;3725252;37;21065;-61
2021/03/05 09:24:53;;;;;;;;;69.25;53.25;;;;;12.62;47.52;100615.69;3725339;37;21034;-63
2021/03/05 09:27:24;;;;;;;;;66.50;52.50;;;;;12.70;46.04;100614.72;3725181;37;21036;-62
2021/03/05 09:29:51;;;;;;;;;64.25;50.00;;;;;12.77;46.59;100608.31;3725126;37;21045;-61
2021/03/05 09:32:18;;;;;;;;;59.75;46.75;;;;;12.86;45.23;100607.13;3725988;38;21042;-61
2021/03/05 09:34:52;;;;;;;;;63.25;49.00;;;;;13.00;44.08;100604.50;3725521;37;21026;-62
2021/03/05 09:37:21;;;;;;;;;63.25;48.25;;;;;13.03;45.14;100598.66;3725303;38;21010;-63
2021/03/05 09:39:49;;;;;;;;;65.00;50.25;;;;;12.95;44.87;100596.97;3725401;38;21015;-65
2021/03/05 09:42:16;;;;;;;;;57.25;43.50;;;;;13.09;44.03;100595.97;3725804;37;21022;-63
2021/03/05 09:44:47;;;;;;;;;54.75;43.50;;;;;13.21;44.04;100590.88;3725554;38;21006;-66
2021/03/05 09:47:14;;;;;;;;;62.75;50.25;;;;;13.21;44.58;100590.88;3725702;37;21020;-64
2021/03/05 09:49:40;;;;;;;;;56.00;45.00;;;;;13.34;42.74;100585.50;3725088;38;21019;-65
2021/03/05 09:52:26;;;;;;;;;57.75;46.25;;;;;13.42;43.01;100579.91;3725116;37;21020;-63
2021/03/05 09:54:54;;;;;;;;;70.50;53.25;;;;;13.61;42.80;100583.75;3725139;37;21116;-60
2021/03/05 09:57:24;;;;;;;;;59.50;46.00;;;;;13.80;42.12;100574.81;3724914;37;20996;-63
2021/03/05 09:59:51;;;;;;;;;52.75;43.25;;;;;13.83;41.96;100571.69;3725193;37;21060;-63
2021/03/05 10:02:21;;;;;;;;;64.75;50.00;;;;;13.96;41.83;100568.19;3725107;37;20999;-63
2021/03/05 10:04:49;;;;;;;;;56.00;43.50;;;;;14.04;41.00;100567.13;3725290;38;21100;-62
2021/03/05 10:07:17;;;;;;;;;54.00;43.50;;;;;14.07;40.85;100564.00;3724961;37;21367;-62
2021/03/05 10:09:44;;;;;;;;;58.00;46.75;;;;;14.06;40.99;100568.59;3724776;37;20969;-61
2021/03/05 10:12:12;;;;;;;;;56.00;45.75;;;;;14.05;41.41;100560.62;3724656;37;20972;-62
2021/03/05 10:14:41;;;;;;;;;52.75;43.50;;;;;14.02;40.77;100553.75;3725146;38;20963;-64
2021/03/05 10:17:26;;;;;;;;;59.00;47.25;;;;;13.98;40.81;100552.47;3725160;38;20983;-64
2021/03/05 10:19:52;;;;;;;;;58.75;46.25;;;;;13.96;40.64;100549.13;3725708;37;20946;-61
2021/03/05 10:22:25;;;;;;;;;50.00;42.25;;;;;14.12;40.84;100558.75;3725087;38;20975;-64
2021/03/05 10:24:56;;;;;;;;;53.25;42.75;;;;;14.02;41.14;100561.06;3725567;38;20957;-63
2021/03/05 10:27:23;;;;;;;;;53.25;43.50;;;;;14.09;39.74;100554.56;3724957;38;20953;-62
2021/03/05 10:29:51;;;;;;;;;58.75;45.75;;;;;14.32;39.88;100548.75;3725186;37;20864;-65
2021/03/05 10:32:28;;;;;;;;;52.50;42.25;;;;;14.30;39.31;100548.13;3725348;38;20957;-62
2021/03/05 10:34:56;;;;;;;;;55.00;44.00;;;;;14.28;39.08;100550.22;3725344;38;20934;-63
2021/03/05 10:37:23;;;;;;;;;58.00;45.25;;;;;14.30;38.76;100548.13;3725307;38;20989;-64
2021/03/05 10:39:51;;;;;;;;;56.75;46.25;;;;;14.42;39.37;100548.38;3725181;38;20946;-70
2021/03/05 10:42:19;;;;;;;;;56.25;42.75;;;;;14.48;38.87;100539.38;3725273;37;20962;-63
2021/03/05 10:44:47;;;;;;;;;53.00;42.75;;;;;13.75;39.59;100530.22;3725294;37;20869;-63
2021/03/05 10:47:19;;;;;;;;;53.50;43.50;;;;;13.99;39.88;100529.66;3725183;37;20865;-64
2021/03/05 10:49:47;;;;;;;;;54.00;42.25;;;;;14.39;39.96;100526.97;3724877;38;20828;-63
2021/03/05 10:52:15;;;;;;;;;45.00;38.00;;;;;14.47;38.83;100510.47;3725124;37;20946;-63
2021/03/05 10:54:44;;;;;;;;;49.75;39.50;;;;;14.58;37.94;100518.81;3725162;37;20840;-63
2021/03/05 10:57:13;;;;;;;;;50.25;39.25;;;;;14.88;37.38;100521.91;3725168;37;20873;-60
2021/03/05 10:59:40;;;;;;;;;51.25;40.00;;;;;14.96;37.86;100522.75;3725073;37;20795;-62
2021/03/05 11:02:06;;;;;;;;;49.00;39.00;;;;;14.58;37.73;100513.34;3725027;38;20877;-63
2021/03/05 11:04:32;;;;;;;;;53.50;42.75;;;;;14.80;38.56;100513.97;3725144;38;20860;-62
2021/03/05 11:06:59;;;;;;;;;32.50;27.50;;;;;14.78;36.30;100502.44;3725064;37;20829;-63
2021/03/05 11:09:26;;;;;;;;;34.50;32.00;;;;;14.99;36.66;100489.62;3724824;38;20808;-63
2021/03/05 11:11:56;;;;;;;;;40.00;33.75;;;;;15.29;36.49;100496.22;3725321;37;20788;-62
2021/03/05 11:14:24;;;;;;;;;40.25;34.50;;;;;15.45;35.48;100493.00;3729349;37;20779;-63
2021/03/05 11:16:53;;;;;;;;;38.50;31.50;;;;;15.51;35.69;100478.50;3736233;37;20807;-65
2021/03/05 11:19:25;;;;;;;;;52.50;40.25;;;;;15.66;35.64;100480.94;3737200;37;20843;-69
2021/03/05 11:21:51;;;;;;;;;48.25;36.75;;;;;15.36;35.72;100488.00;3732396;37;20838;-64
2021/03/05 11:24:19;;;;;;;;;46.50;36.25;;;;;15.61;35.58;100482.62;3725935;37;20835;-65
2021/03/05 11:26:46;;;;;;;;;43.75;35.25;;;;;15.84;35.43;100488.37;3725674;37;20811;-63
2021/03/05 11:29:14;;;;;;;;;42.75;36.50;;;;;15.94;34.95;100472.38;3725261;37;20781;-63
2021/03/05 11:31:41;;;;;;;;;35.00;32.75;;;;;15.99;34.69;100482.62;3724659;37;20788;-62